sensor_id;sensor_type;location;lat;lon;timestamp;P1;durP1;ratioP1;P2;durP2;ratioP2
22254;SDS011;11296;42.684;23.322;2022-07-04T00:02:25;8.63;;;6.00;;
22254;SDS011;11296;42.684;23.322;2022-07-04T00:04:50;7.47;;;5.80;;
22254;SDS011;11296;42.684;23.322;2022-07-04T00:07:16;7.37;;;5.93;;
22254;SDS011;11296;42.684;23.322;2022-07-04T00:09:41;6.60;;;5.90;;
22254;SDS011;11296;42.684;23.322;2022-07-04T00:12:07;8.37;;;6.10;;
22254;SDS011;11296;42.684;23.322;2022-07-04T00:14:33;7.53;;;5.93;;
22254;SDS011;11296;42.684;23.322;2022-07-04T00:16:59;7.30;;;5.60;;
22254;SDS011;11296;42.684;23.322;2022-07-04T00:19:24;9.30;;;6.07;;
22254;SDS011;11296;42.684;23.322;2022-07-04T00:21:50;11.43;;;5.87;;
22254;SDS011;11296;42.684;23.322;2022-07-04T00:24:15;10.00;;;5.77;;
22254;SDS011;11296;42.684;23.322;2022-07-04T00:26:40;7.27;;;5.60;;
22254;SDS011;11296;42.684;23.322;2022-07-04T00:29:08;7.67;;;5.57;;
22254;SDS011;11296;42.684;23.322;2022-07-04T00:31:33;7.70;;;5.43;;
22254;SDS011;11296;42.684;23.322;2022-07-04T00:33:59;6.90;;;5.20;;
22254;SDS011;11296;42.684;23.322;2022-07-04T00:36:24;8.30;;;5.83;;
22254;SDS011;11296;42.684;23.322;2022-07-04T00:38:50;8.97;;;5.20;;
22254;SDS011;11296;42.684;23.322;2022-07-04T00:41:15;5.97;;;5.30;;
22254;SDS011;11296;42.684;23.322;2022-07-04T00:43:41;8.13;;;5.27;;
22254;SDS011;11296;42.684;23.322;2022-07-04T00:46:06;7.10;;;5.63;;
22254;SDS011;11296;42.684;23.322;2022-07-04T00:48:32;11.70;;;5.13;;
22254;SDS011;11296;42.684;23.322;2022-07-04T00:50:58;11.40;;;5.00;;
22254;SDS011;11296;42.684;23.322;2022-07-04T00:53:23;9.70;;;4.93;;
22254;SDS011;11296;42.684;23.322;2022-07-04T00:55:49;5.40;;;4.30;;
22254;SDS011;11296;42.684;23.322;2022-07-04T00:58:15;6.50;;;4.30;;
22254;SDS011;11296;42.684;23.322;2022-07-04T01:00:43;6.00;;;4.53;;
22254;SDS011;11296;42.684;23.322;2022-07-04T01:03:09;6.63;;;4.20;;
22254;SDS011;11296;42.684;23.322;2022-07-04T01:05:34;8.00;;;4.33;;
22254;SDS011;11296;42.684;23.322;2022-07-04T01:08:00;4.47;;;4.07;;
22254;SDS011;11296;42.684;23.322;2022-07-04T01:10:26;9.40;;;3.90;;
22254;SDS011;11296;42.684;23.322;2022-07-04T01:12:52;6.40;;;3.80;;
22254;SDS011;11296;42.684;23.322;2022-07-04T01:15:19;4.63;;;3.53;;
22254;SDS011;11296;42.684;23.322;2022-07-04T01:17:44;5.77;;;3.50;;
22254;SDS011;11296;42.684;23.322;2022-07-04T01:20:11;6.00;;;3.70;;
22254;SDS011;11296;42.684;23.322;2022-07-04T01:22:36;7.23;;;3.90;;
22254;SDS011;11296;42.684;23.322;2022-07-04T01:25:02;5.47;;;3.77;;
22254;SDS011;11296;42.684;23.322;2022-07-04T01:27:28;5.53;;;3.77;;
22254;SDS011;11296;42.684;23.322;2022-07-04T01:29:53;4.20;;;3.60;;
22254;SDS011;11296;42.684;23.322;2022-07-04T01:32:19;4.60;;;3.67;;
22254;SDS011;11296;42.684;23.322;2022-07-04T01:34:45;6.87;;;3.53;;
22254;SDS011;11296;42.684;23.322;2022-07-04T01:37:10;4.53;;;3.67;;
22254;SDS011;11296;42.684;23.322;2022-07-04T01:39:36;4.97;;;3.60;;
22254;SDS011;11296;42.684;23.322;2022-07-04T01:42:02;4.80;;;3.70;;
22254;SDS011;11296;42.684;23.322;2022-07-04T01:44:27;5.13;;;3.70;;
22254;SDS011;11296;42.684;23.322;2022-07-04T01:46:53;8.47;;;3.60;;
22254;SDS011;11296;42.684;23.322;2022-07-04T01:49:18;6.20;;;3.37;;
22254;SDS011;11296;42.684;23.322;2022-07-04T01:51:48;6.23;;;3.47;;
22254;SDS011;11296;42.684;23.322;2022-07-04T01:54:14;6.17;;;3.73;;
22254;SDS011;11296;42.684;23.322;2022-07-04T01:56:40;6.83;;;4.10;;
22254;SDS011;11296;42.684;23.322;2022-07-04T01:59:06;4.53;;;3.50;;
22254;SDS011;11296;42.684;23.322;2022-07-04T02:01:32;5.10;;;3.73;;
22254;SDS011;11296;42.684;23.322;2022-07-04T02:03:58;5.30;;;3.80;;
22254;SDS011;11296;42.684;23.322;2022-07-04T02:06:23;5.73;;;3.83;;
22254;SDS011;11296;42.684;23.322;2022-07-04T02:08:50;6.30;;;3.83;;
22254;SDS011;11296;42.684;23.322;2022-07-04T02:11:34;7.33;;;3.60;;
22254;SDS011;11296;42.684;23.322;2022-07-04T02:14:19;5.60;;;3.80;;
22254;SDS011;11296;42.684;23.322;2022-07-04T02:16:44;4.53;;;3.70;;
22254;SDS011;11296;42.684;23.322;2022-07-04T02:19:10;7.97;;;3.87;;
22254;SDS011;11296;42.684;23.322;2022-07-04T02:21:35;5.70;;;4.07;;
22254;SDS011;11296;42.684;23.322;2022-07-04T02:24:01;7.47;;;3.97;;
22254;SDS011;11296;42.684;23.322;2022-07-04T02:26:26;6.57;;;4.00;;
22254;SDS011;11296;42.684;23.322;2022-07-04T02:28:52;8.60;;;3.83;;
22254;SDS011;11296;42.684;23.322;2022-07-04T02:31:17;7.00;;;4.10;;
22254;SDS011;11296;42.684;23.322;2022-07-04T02:33:43;8.43;;;3.70;;
22254;SDS011;11296;42.684;23.322;2022-07-04T02:36:08;8.80;;;4.07;;
22254;SDS011;11296;42.684;23.322;2022-07-04T02:38:34;6.23;;;4.10;;
22254;SDS011;11296;42.684;23.322;2022-07-04T02:40:59;6.07;;;4.17;;
22254;SDS011;11296;42.684;23.322;2022-07-04T02:43:25;6.50;;;4.00;;
22254;SDS011;11296;42.684;23.322;2022-07-04T02:45:50;5.30;;;3.77;;
22254;SDS011;11296;42.684;23.322;2022-07-04T02:48:16;7.33;;;3.90;;
22254;SDS011;11296;42.684;23.322;2022-07-04T02:50:41;5.20;;;3.67;;
22254;SDS011;11296;42.684;23.322;2022-07-04T02:53:06;6.47;;;3.47;;
22254;SDS011;11296;42.684;23.322;2022-07-04T02:55:32;4.60;;;3.10;;
22254;SDS011;11296;42.684;23.322;2022-07-04T02:57:58;5.60;;;3.40;;
22254;SDS011;11296;42.684;23.322;2022-07-04T03:00:23;6.63;;;3.50;;
22254;SDS011;11296;42.684;23.322;2022-07-04T03:02:50;7.03;;;3.10;;
22254;SDS011;11296;42.684;23.322;2022-07-04T03:05:16;6.17;;;3.47;;
22254;SDS011;11296;42.684;23.322;2022-07-04T03:07:41;5.17;;;3.63;;
22254;SDS011;11296;42.684;23.322;2022-07-04T03:10:07;6.90;;;3.60;;
22254;SDS011;11296;42.684;23.322;2022-07-04T03:12:32;7.10;;;3.53;;
22254;SDS011;11296;42.684;23.322;2022-07-04T03:14:58;6.33;;;3.43;;
22254;SDS011;11296;42.684;23.322;2022-07-04T03:17:25;10.50;;;3.70;;
22254;SDS011;11296;42.684;23.322;2022-07-04T03:19:52;7.03;;;4.57;;
22254;SDS011;11296;42.684;23.322;2022-07-04T03:25:48;7.83;;;3.87;;
22254;SDS011;11296;42.684;23.322;2022-07-04T03:28:13;5.47;;;3.43;;
22254;SDS011;11296;42.684;23.322;2022-07-04T03:30:39;8.40;;;3.47;;
22254;SDS011;11296;42.684;23.322;2022-07-04T03:33:05;7.10;;;3.50;;
22254;SDS011;11296;42.684;23.322;2022-07-04T03:35:30;6.37;;;3.80;;
22254;SDS011;11296;42.684;23.322;2022-07-04T03:37:56;8.60;;;3.70;;
22254;SDS011;11296;42.684;23.322;2022-07-04T03:40:21;7.53;;;3.73;;
22254;SDS011;11296;42.684;23.322;2022-07-04T03:42:50;7.10;;;3.83;;
22254;SDS011;11296;42.684;23.322;2022-07-04T03:45:15;8.27;;;3.80;;
22254;SDS011;11296;42.684;23.322;2022-07-04T03:47:42;8.10;;;4.07;;
22254;SDS011;11296;42.684;23.322;2022-07-04T03:50:18;6.27;;;3.53;;
22254;SDS011;11296;42.684;23.322;2022-07-04T03:52:49;6.07;;;3.97;;
22254;SDS011;11296;42.684;23.322;2022-07-04T03:55:17;7.60;;;3.57;;
22254;SDS011;11296;42.684;23.322;2022-07-04T03:57:43;6.20;;;3.97;;
22254;SDS011;11296;42.684;23.322;2022-07-04T04:00:13;4.90;;;4.10;;
22254;SDS011;11296;42.684;23.322;2022-07-04T04:02:39;6.03;;;3.97;;
22254;SDS011;11296;42.684;23.322;2022-07-04T04:05:07;7.17;;;3.87;;
22254;SDS011;11296;42.684;23.322;2022-07-04T04:08:00;8.67;;;3.77;;
22254;SDS011;11296;42.684;23.322;2022-07-04T04:10:29;6.90;;;3.33;;
22254;SDS011;11296;42.684;23.322;2022-07-04T04:12:56;8.67;;;3.80;;
22254;SDS011;11296;42.684;23.322;2022-07-04T04:15:22;5.97;;;4.30;;
22254;SDS011;11296;42.684;23.322;2022-07-04T04:17:47;8.93;;;3.60;;
22254;SDS011;11296;42.684;23.322;2022-07-04T04:20:13;7.37;;;3.80;;
22254;SDS011;11296;42.684;23.322;2022-07-04T04:22:38;10.70;;;4.10;;
22254;SDS011;11296;42.684;23.322;2022-07-04T04:25:06;9.63;;;4.40;;
22254;SDS011;11296;42.684;23.322;2022-07-04T04:27:33;8.63;;;4.43;;
22254;SDS011;11296;42.684;23.322;2022-07-04T04:30:31;8.70;;;4.47;;
22254;SDS011;11296;42.684;23.322;2022-07-04T04:32:58;9.20;;;4.90;;
22254;SDS011;11296;42.684;23.322;2022-07-04T04:35:30;6.23;;;4.20;;
22254;SDS011;11296;42.684;23.322;2022-07-04T04:37:57;6.23;;;4.57;;
22254;SDS011;11296;42.684;23.322;2022-07-04T04:40:23;8.10;;;4.70;;
22254;SDS011;11296;42.684;23.322;2022-07-04T04:42:51;9.73;;;4.67;;
22254;SDS011;11296;42.684;23.322;2022-07-04T04:45:18;8.83;;;4.53;;
22254;SDS011;11296;42.684;23.322;2022-07-04T04:47:44;8.23;;;4.50;;
22254;SDS011;11296;42.684;23.322;2022-07-04T04:50:09;9.67;;;4.40;;
22254;SDS011;11296;42.684;23.322;2022-07-04T04:52:40;7.53;;;4.63;;
22254;SDS011;11296;42.684;23.322;2022-07-04T04:55:08;11.03;;;4.80;;
22254;SDS011;11296;42.684;23.322;2022-07-04T04:57:34;6.73;;;4.60;;
22254;SDS011;11296;42.684;23.322;2022-07-04T05:00:00;7.57;;;4.57;;
22254;SDS011;11296;42.684;23.322;2022-07-04T05:02:30;6.10;;;4.30;;
22254;SDS011;11296;42.684;23.322;2022-07-04T05:04:59;5.80;;;4.43;;
22254;SDS011;11296;42.684;23.322;2022-07-04T05:07:24;5.97;;;4.47;;
22254;SDS011;11296;42.684;23.322;2022-07-04T05:09:50;9.63;;;4.60;;
22254;SDS011;11296;42.684;23.322;2022-07-04T05:12:15;6.57;;;5.07;;
22254;SDS011;11296;42.684;23.322;2022-07-04T05:14:41;7.60;;;4.93;;
22254;SDS011;11296;42.684;23.322;2022-07-04T05:17:07;6.63;;;4.43;;
22254;SDS011;11296;42.684;23.322;2022-07-04T05:19:33;8.20;;;5.30;;
22254;SDS011;11296;42.684;23.322;2022-07-04T05:21:58;9.10;;;5.10;;
22254;SDS011;11296;42.684;23.322;2022-07-04T05:24:23;8.07;;;4.93;;
22254;SDS011;11296;42.684;23.322;2022-07-04T05:26:49;5.57;;;4.50;;
22254;SDS011;11296;42.684;23.322;2022-07-04T05:29:15;7.13;;;4.50;;
22254;SDS011;11296;42.684;23.322;2022-07-04T05:31:42;5.83;;;5.10;;
22254;SDS011;11296;42.684;23.322;2022-07-04T05:34:07;8.97;;;5.27;;
22254;SDS011;11296;42.684;23.322;2022-07-04T05:36:32;7.60;;;5.10;;
22254;SDS011;11296;42.684;23.322;2022-07-04T05:38:58;11.13;;;5.53;;
22254;SDS011;11296;42.684;23.322;2022-07-04T05:41:24;8.77;;;5.33;;
22254;SDS011;11296;42.684;23.322;2022-07-04T05:43:49;9.43;;;5.40;;
22254;SDS011;11296;42.684;23.322;2022-07-04T05:46:15;8.87;;;5.20;;
22254;SDS011;11296;42.684;23.322;2022-07-04T05:48:41;11.17;;;5.90;;
22254;SDS011;11296;42.684;23.322;2022-07-04T05:51:07;14.03;;;6.37;;
22254;SDS011;11296;42.684;23.322;2022-07-04T05:53:32;14.50;;;5.60;;
22254;SDS011;11296;42.684;23.322;2022-07-04T05:55:58;48.70;;;8.27;;
22254;SDS011;11296;42.684;23.322;2022-07-04T05:58:23;10.50;;;4.17;;
22254;SDS011;11296;42.684;23.322;2022-07-04T06:00:49;6.83;;;3.63;;
22254;SDS011;11296;42.684;23.322;2022-07-04T06:03:15;11.17;;;4.50;;
22254;SDS011;11296;42.684;23.322;2022-07-04T06:05:40;6.60;;;4.00;;
22254;SDS011;11296;42.684;23.322;2022-07-04T06:08:06;11.27;;;4.20;;
22254;SDS011;11296;42.684;23.322;2022-07-04T06:10:31;15.97;;;4.10;;
22254;SDS011;11296;42.684;23.322;2022-07-04T06:12:57;15.70;;;4.60;;
22254;SDS011;11296;42.684;23.322;2022-07-04T06:15:22;13.70;;;4.50;;
22254;SDS011;11296;42.684;23.322;2022-07-04T06:17:48;4.30;;;3.50;;
22254;SDS011;11296;42.684;23.322;2022-07-04T06:20:13;19.40;;;3.97;;
22254;SDS011;11296;42.684;23.322;2022-07-04T06:22:47;12.80;;;3.90;;
22254;SDS011;11296;42.684;23.322;2022-07-04T06:25:17;8.53;;;4.20;;
22254;SDS011;11296;42.684;23.322;2022-07-04T06:27:45;8.67;;;3.27;;
22254;SDS011;11296;42.684;23.322;2022-07-04T06:30:10;6.20;;;3.80;;
22254;SDS011;11296;42.684;23.322;2022-07-04T06:32:43;5.40;;;3.70;;
22254;SDS011;11296;42.684;23.322;2022-07-04T06:35:12;10.47;;;3.77;;
22254;SDS011;11296;42.684;23.322;2022-07-04T06:37:57;4.53;;;3.33;;
22254;SDS011;11296;42.684;23.322;2022-07-04T06:40:24;9.90;;;4.20;;
22254;SDS011;11296;42.684;23.322;2022-07-04T06:42:50;6.27;;;3.13;;
22254;SDS011;11296;42.684;23.322;2022-07-04T06:45:16;5.53;;;3.50;;
22254;SDS011;11296;42.684;23.322;2022-07-04T06:47:41;5.33;;;4.00;;
22254;SDS011;11296;42.684;23.322;2022-07-04T06:50:07;6.37;;;4.20;;
22254;SDS011;11296;42.684;23.322;2022-07-04T06:52:33;6.63;;;3.67;;
22254;SDS011;11296;42.684;23.322;2022-07-04T06:54:59;134.07;;;28.70;;
22254;SDS011;11296;42.684;23.322;2022-07-04T06:57:25;29.33;;;8.07;;
22254;SDS011;11296;42.684;23.322;2022-07-04T06:59:50;17.70;;;5.40;;
22254;SDS011;11296;42.684;23.322;2022-07-04T07:02:15;8.10;;;3.70;;
22254;SDS011;11296;42.684;23.322;2022-07-04T07:04:41;7.35;;;4.20;;
22254;SDS011;11296;42.684;23.322;2022-07-04T07:07:08;11.95;;;4.22;;
22254;SDS011;11296;42.684;23.322;2022-07-04T07:09:33;8.13;;;4.38;;
22254;SDS011;11296;42.684;23.322;2022-07-04T07:11:59;7.97;;;4.57;;
22254;SDS011;11296;42.684;23.322;2022-07-04T07:14:25;8.75;;;4.05;;
22254;SDS011;11296;42.684;23.322;2022-07-04T07:16:50;8.05;;;4.88;;
22254;SDS011;11296;42.684;23.322;2022-07-04T07:19:16;6.30;;;3.70;;
22254;SDS011;11296;42.684;23.322;2022-07-04T07:21:41;5.78;;;4.38;;
22254;SDS011;11296;42.684;23.322;2022-07-04T07:24:07;5.70;;;4.45;;
22254;SDS011;11296;42.684;23.322;2022-07-04T07:26:32;7.35;;;3.95;;
22254;SDS011;11296;42.684;23.322;2022-07-04T07:28:58;9.77;;;4.18;;
22254;SDS011;11296;42.684;23.322;2022-07-04T07:31:23;8.32;;;4.50;;
22254;SDS011;11296;42.684;23.322;2022-07-04T07:33:48;5.60;;;4.00;;
22254;SDS011;11296;42.684;23.322;2022-07-04T07:36:14;7.90;;;4.18;;
22254;SDS011;11296;42.684;23.322;2022-07-04T07:38:39;6.38;;;4.20;;
22254;SDS011;11296;42.684;23.322;2022-07-04T07:41:11;5.60;;;4.00;;
22254;SDS011;11296;42.684;23.322;2022-07-04T07:43:36;6.63;;;4.47;;
22254;SDS011;11296;42.684;23.322;2022-07-04T07:46:06;5.82;;;4.30;;
22254;SDS011;11296;42.684;23.322;2022-07-04T07:48:32;10.90;;;4.55;;
22254;SDS011;11296;42.684;23.322;2022-07-04T07:50:57;8.23;;;4.53;;
22254;SDS011;11296;42.684;23.322;2022-07-04T07:53:23;19.85;;;6.70;;
22254;SDS011;11296;42.684;23.322;2022-07-04T07:55:48;8.23;;;4.40;;
22254;SDS011;11296;42.684;23.322;2022-07-04T07:58:13;5.93;;;4.50;;
22254;SDS011;11296;42.684;23.322;2022-07-04T08:00:39;8.95;;;4.85;;
22254;SDS011;11296;42.684;23.322;2022-07-04T08:03:04;9.30;;;5.10;;
22254;SDS011;11296;42.684;23.322;2022-07-04T08:05:48;8.60;;;4.53;;
22254;SDS011;11296;42.684;23.322;2022-07-04T08:08:14;6.22;;;5.13;;
22254;SDS011;11296;42.684;23.322;2022-07-04T08:10:39;8.07;;;5.07;;
22254;SDS011;11296;42.684;23.322;2022-07-04T08:13:05;9.57;;;5.10;;
22254;SDS011;11296;42.684;23.322;2022-07-04T08:15:32;5.60;;;5.10;;
22254;SDS011;11296;42.684;23.322;2022-07-04T08:17:57;7.80;;;5.80;;
22254;SDS011;11296;42.684;23.322;2022-07-04T08:20:23;6.13;;;5.38;;
22254;SDS011;11296;42.684;23.322;2022-07-04T08:22:48;8.20;;;5.43;;
22254;SDS011;11296;42.684;23.322;2022-07-04T08:25:14;9.48;;;5.18;;
22254;SDS011;11296;42.684;23.322;2022-07-04T08:27:40;7.63;;;6.10;;
22254;SDS011;11296;42.684;23.322;2022-07-04T08:30:06;8.50;;;5.28;;
22254;SDS011;11296;42.684;23.322;2022-07-04T08:32:31;6.90;;;5.30;;
22254;SDS011;11296;42.684;23.322;2022-07-04T08:34:57;7.50;;;5.65;;
22254;SDS011;11296;42.684;23.322;2022-07-04T08:37:23;7.78;;;6.13;;
22254;SDS011;11296;42.684;23.322;2022-07-04T08:39:49;9.65;;;5.63;;
22254;SDS011;11296;42.684;23.322;2022-07-04T08:42:19;8.65;;;6.15;;
22254;SDS011;11296;42.684;23.322;2022-07-04T08:44:52;6.72;;;5.57;;
22254;SDS011;11296;42.684;23.322;2022-07-04T08:47:21;10.73;;;6.40;;
22254;SDS011;11296;42.684;23.322;2022-07-04T08:49:58;7.68;;;6.28;;
22254;SDS011;11296;42.684;23.322;2022-07-04T08:52:28;7.90;;;6.18;;
22254;SDS011;11296;42.684;23.322;2022-07-04T08:54:55;6.40;;;5.80;;
22254;SDS011;11296;42.684;23.322;2022-07-04T08:57:40;7.75;;;6.55;;
22254;SDS011;11296;42.684;23.322;2022-07-04T09:00:24;8.40;;;5.85;;
22254;SDS011;11296;42.684;23.322;2022-07-04T09:02:50;8.18;;;6.22;;
22254;SDS011;11296;42.684;23.322;2022-07-04T09:05:15;8.88;;;6.20;;
22254;SDS011;11296;42.684;23.322;2022-07-04T09:07:41;9.85;;;6.65;;
22254;SDS011;11296;42.684;23.322;2022-07-04T09:10:07;9.27;;;7.07;;
22254;SDS011;11296;42.684;23.322;2022-07-04T09:12:32;7.55;;;6.85;;
22254;SDS011;11296;42.684;23.322;2022-07-04T09:14:58;7.90;;;6.68;;
22254;SDS011;11296;42.684;23.322;2022-07-04T09:17:24;12.32;;;7.00;;
22254;SDS011;11296;42.684;23.322;2022-07-04T09:20:24;9.85;;;6.90;;
22254;SDS011;11296;42.684;23.322;2022-07-04T09:22:42;9.70;;;6.75;;
22254;SDS011;11296;42.684;23.322;2022-07-04T09:25:08;14.05;;;7.38;;
22254;SDS011;11296;42.684;23.322;2022-07-04T09:27:39;9.15;;;6.55;;
22254;SDS011;11296;42.684;23.322;2022-07-04T09:30:05;7.38;;;6.75;;
22254;SDS011;11296;42.684;23.322;2022-07-04T09:32:43;7.15;;;6.30;;
22254;SDS011;11296;42.684;23.322;2022-07-04T09:35:14;7.57;;;6.55;;
22254;SDS011;11296;42.684;23.322;2022-07-04T09:37:42;8.80;;;6.35;;
22254;SDS011;11296;42.684;23.322;2022-07-04T09:40:11;7.78;;;6.43;;
22254;SDS011;11296;42.684;23.322;2022-07-04T09:42:45;7.20;;;6.35;;
22254;SDS011;11296;42.684;23.322;2022-07-04T09:45:10;6.97;;;6.35;;
22254;SDS011;11296;42.684;23.322;2022-07-04T09:47:39;9.32;;;6.13;;
22254;SDS011;11296;42.684;23.322;2022-07-04T09:50:09;7.15;;;6.32;;
22254;SDS011;11296;42.684;23.322;2022-07-04T09:55:09;10.60;;;6.82;;
22254;SDS011;11296;42.684;23.322;2022-07-04T09:57:36;7.03;;;6.32;;
22254;SDS011;11296;42.684;23.322;2022-07-04T10:02:46;8.10;;;6.72;;
22254;SDS011;11296;42.684;23.322;2022-07-04T10:05:11;7.97;;;7.30;;
22254;SDS011;11296;42.684;23.322;2022-07-04T10:07:37;7.97;;;7.20;;
22254;SDS011;11296;42.684;23.322;2022-07-04T10:12:51;9.10;;;8.30;;
22254;SDS011;11296;42.684;23.322;2022-07-04T10:15:18;14.90;;;10.82;;
22254;SDS011;11296;42.684;23.322;2022-07-04T10:20:48;32.83;;;29.90;;
22254;SDS011;11296;42.684;23.322;2022-07-04T10:23:14;9.50;;;8.80;;
22254;SDS011;11296;42.684;23.322;2022-07-04T10:25:40;10.05;;;9.20;;
22254;SDS011;11296;42.684;23.322;2022-07-04T10:28:07;10.05;;;9.00;;
22254;SDS011;11296;42.684;23.322;2022-07-04T10:30:33;10.23;;;9.10;;
22254;SDS011;11296;42.684;23.322;2022-07-04T10:33:00;11.48;;;10.00;;
22254;SDS011;11296;42.684;23.322;2022-07-04T10:35:46;9.85;;;9.10;;
22254;SDS011;11296;42.684;23.322;2022-07-04T10:38:12;14.77;;;10.63;;
22254;SDS011;11296;42.684;23.322;2022-07-04T10:40:42;11.20;;;9.93;;
22254;SDS011;11296;42.684;23.322;2022-07-04T10:51:20;10.25;;;9.43;;
22254;SDS011;11296;42.684;23.322;2022-07-04T10:54:02;10.32;;;9.45;;
22254;SDS011;11296;42.684;23.322;2022-07-04T10:58:56;10.55;;;9.65;;
22254;SDS011;11296;42.684;23.322;2022-07-04T11:01:26;10.10;;;9.00;;
22254;SDS011;11296;42.684;23.322;2022-07-04T11:03:52;10.20;;;9.32;;
22254;SDS011;11296;42.684;23.322;2022-07-04T11:09:22;12.65;;;9.55;;
22254;SDS011;11296;42.684;23.322;2022-07-04T11:12:00;11.05;;;9.95;;
22254;SDS011;11296;42.684;23.322;2022-07-04T11:16:57;10.43;;;9.38;;
22254;SDS011;11296;42.684;23.322;2022-07-04T11:19:24;9.95;;;9.07;;
22254;SDS011;11296;42.684;23.322;2022-07-04T11:21:49;10.48;;;9.48;;
22254;SDS011;11296;42.684;23.322;2022-07-04T11:24:15;10.77;;;9.98;;
22254;SDS011;11296;42.684;23.322;2022-07-04T11:26:40;9.95;;;9.18;;
22254;SDS011;11296;42.684;23.322;2022-07-04T11:29:06;9.95;;;9.20;;
22254;SDS011;11296;42.684;23.322;2022-07-04T11:31:37;10.88;;;9.48;;
22254;SDS011;11296;42.684;23.322;2022-07-04T11:34:04;10.80;;;9.82;;
22254;SDS011;11296;42.684;23.322;2022-07-04T11:36:31;10.52;;;9.50;;
22254;SDS011;11296;42.684;23.322;2022-07-04T11:39:03;10.70;;;9.82;;
22254;SDS011;11296;42.684;23.322;2022-07-04T11:41:35;11.15;;;10.20;;
22254;SDS011;11296;42.684;23.322;2022-07-04T11:44:21;10.73;;;9.85;;
22254;SDS011;11296;42.684;23.322;2022-07-04T11:49:34;10.48;;;9.60;;
22254;SDS011;11296;42.684;23.322;2022-07-04T11:51:59;10.00;;;9.20;;
22254;SDS011;11296;42.684;23.322;2022-07-04T11:54:25;11.45;;;10.35;;
22254;SDS011;11296;42.684;23.322;2022-07-04T11:56:50;10.82;;;9.93;;
22254;SDS011;11296;42.684;23.322;2022-07-04T11:59:16;11.15;;;10.13;;
22254;SDS011;11296;42.684;23.322;2022-07-04T12:01:42;10.57;;;9.50;;
22254;SDS011;11296;42.684;23.322;2022-07-04T12:04:15;11.00;;;10.10;;
22254;SDS011;11296;42.684;23.322;2022-07-04T12:06:42;10.57;;;9.57;;
22254;SDS011;11296;42.684;23.322;2022-07-04T12:09:08;10.93;;;9.93;;
22254;SDS011;11296;42.684;23.322;2022-07-04T12:14:18;10.30;;;9.57;;
22254;SDS011;11296;42.684;23.322;2022-07-04T12:16:43;10.57;;;9.52;;
22254;SDS011;11296;42.684;23.322;2022-07-04T12:19:09;10.70;;;9.75;;
22254;SDS011;11296;42.684;23.322;2022-07-04T12:21:35;10.63;;;9.85;;
22254;SDS011;11296;42.684;23.322;2022-07-04T12:24:01;9.98;;;9.07;;
22254;SDS011;11296;42.684;23.322;2022-07-04T12:26:30;10.70;;;9.80;;
22254;SDS011;11296;42.684;23.322;2022-07-04T12:28:55;9.82;;;9.02;;
22254;SDS011;11296;42.684;23.322;2022-07-04T12:31:37;9.82;;;8.93;;
22254;SDS011;11296;42.684;23.322;2022-07-04T12:34:02;10.65;;;9.77;;
22254;SDS011;11296;42.684;23.322;2022-07-04T12:36:28;10.73;;;9.90;;
22254;SDS011;11296;42.684;23.322;2022-07-04T12:38:54;10.75;;;9.73;;
22254;SDS011;11296;42.684;23.322;2022-07-04T12:41:29;10.10;;;9.30;;
22254;SDS011;11296;42.684;23.322;2022-07-04T12:43:54;10.38;;;9.57;;
22254;SDS011;11296;42.684;23.322;2022-07-04T12:48:49;12.15;;;10.07;;
22254;SDS011;11296;42.684;23.322;2022-07-04T12:51:16;11.30;;;10.27;;
22254;SDS011;11296;42.684;23.322;2022-07-04T12:53:43;12.00;;;10.50;;
22254;SDS011;11296;42.684;23.322;2022-07-04T12:56:10;10.02;;;9.13;;
22254;SDS011;11296;42.684;23.322;2022-07-04T12:58:51;10.95;;;10.00;;
22254;SDS011;11296;42.684;23.322;2022-07-04T13:01:17;11.25;;;10.25;;
22254;SDS011;11296;42.684;23.322;2022-07-04T13:03:44;10.40;;;9.60;;
22254;SDS011;11296;42.684;23.322;2022-07-04T13:06:09;10.77;;;9.93;;
22254;SDS011;11296;42.684;23.322;2022-07-04T13:08:35;10.73;;;9.88;;
22254;SDS011;11296;42.684;23.322;2022-07-04T13:11:00;11.32;;;10.07;;
22254;SDS011;11296;42.684;23.322;2022-07-04T13:13:44;11.48;;;10.48;;
22254;SDS011;11296;42.684;23.322;2022-07-04T13:16:10;11.75;;;10.63;;
22254;SDS011;11296;42.684;23.322;2022-07-04T13:18:36;10.88;;;10.07;;
22254;SDS011;11296;42.684;23.322;2022-07-04T13:21:01;12.45;;;11.32;;
22254;SDS011;11296;42.684;23.322;2022-07-04T13:23:27;9.65;;;8.93;;
22254;SDS011;11296;42.684;23.322;2022-07-04T13:25:52;10.20;;;9.45;;
22254;SDS011;11296;42.684;23.322;2022-07-04T13:28:21;11.80;;;10.50;;
22254;SDS011;11296;42.684;23.322;2022-07-04T13:30:54;11.10;;;10.20;;
22254;SDS011;11296;42.684;23.322;2022-07-04T13:33:20;10.80;;;9.88;;
22254;SDS011;11296;42.684;23.322;2022-07-04T13:36:03;11.85;;;10.15;;
22254;SDS011;11296;42.684;23.322;2022-07-04T13:38:29;11.13;;;10.15;;
22254;SDS011;11296;42.684;23.322;2022-07-04T13:40:55;11.23;;;10.20;;
22254;SDS011;11296;42.684;23.322;2022-07-04T13:43:23;11.85;;;10.75;;
22254;SDS011;11296;42.684;23.322;2022-07-04T13:45:49;11.10;;;10.30;;
22254;SDS011;11296;42.684;23.322;2022-07-04T13:48:14;10.88;;;10.00;;
22254;SDS011;11296;42.684;23.322;2022-07-04T13:50:40;10.70;;;9.80;;
22254;SDS011;11296;42.684;23.322;2022-07-04T13:53:06;10.23;;;9.43;;
22254;SDS011;11296;42.684;23.322;2022-07-04T13:55:32;10.82;;;9.88;;
22254;SDS011;11296;42.684;23.322;2022-07-04T13:58:03;11.13;;;10.23;;
22254;SDS011;11296;42.684;23.322;2022-07-04T14:00:29;11.55;;;10.43;;
22254;SDS011;11296;42.684;23.322;2022-07-04T14:02:54;11.18;;;10.15;;
22254;SDS011;11296;42.684;23.322;2022-07-04T14:05:20;11.10;;;10.18;;
22254;SDS011;11296;42.684;23.322;2022-07-04T14:07:46;10.98;;;10.18;;
22254;SDS011;11296;42.684;23.322;2022-07-04T14:10:11;11.40;;;10.40;;
22254;SDS011;11296;42.684;23.322;2022-07-04T14:12:37;11.75;;;10.52;;
22254;SDS011;11296;42.684;23.322;2022-07-04T14:15:04;10.77;;;9.88;;
22254;SDS011;11296;42.684;23.322;2022-07-04T14:17:29;11.27;;;10.32;;
22254;SDS011;11296;42.684;23.322;2022-07-04T14:19:55;14.05;;;12.85;;
22254;SDS011;11296;42.684;23.322;2022-07-04T14:22:21;11.60;;;10.52;;
22254;SDS011;11296;42.684;23.322;2022-07-04T14:24:46;11.20;;;10.38;;
22254;SDS011;11296;42.684;23.322;2022-07-04T14:27:12;10.68;;;9.88;;
22254;SDS011;11296;42.684;23.322;2022-07-04T14:29:37;11.35;;;10.35;;
22254;SDS011;11296;42.684;23.322;2022-07-04T14:32:03;10.93;;;10.13;;
22254;SDS011;11296;42.684;23.322;2022-07-04T14:34:29;11.02;;;9.88;;
22254;SDS011;11296;42.684;23.322;2022-07-04T14:36:54;11.45;;;10.43;;
22254;SDS011;11296;42.684;23.322;2022-07-04T14:39:21;12.07;;;10.98;;
22254;SDS011;11296;42.684;23.322;2022-07-04T14:41:47;11.68;;;10.55;;
22254;SDS011;11296;42.684;23.322;2022-07-04T14:44:12;10.45;;;9.65;;
22254;SDS011;11296;42.684;23.322;2022-07-04T14:46:38;11.43;;;10.45;;
22254;SDS011;11296;42.684;23.322;2022-07-04T14:49:03;11.27;;;10.48;;
22254;SDS011;11296;42.684;23.322;2022-07-04T14:51:29;11.30;;;10.15;;
22254;SDS011;11296;42.684;23.322;2022-07-04T14:53:54;11.95;;;10.80;;
22254;SDS011;11296;42.684;23.322;2022-07-04T14:56:20;11.68;;;10.57;;
22254;SDS011;11296;42.684;23.322;2022-07-04T14:58:47;11.07;;;9.98;;
22254;SDS011;11296;42.684;23.322;2022-07-04T15:01:12;11.57;;;10.18;;
22254;SDS011;11296;42.684;23.322;2022-07-04T15:03:38;11.07;;;10.13;;
22254;SDS011;11296;42.684;23.322;2022-07-04T15:06:04;10.10;;;9.38;;
22254;SDS011;11296;42.684;23.322;2022-07-04T15:08:30;10.60;;;9.70;;